createdAt,value
2019-01-10T00:02:22.578Z,6.10
2019-01-10T00:04:50.078Z,8.73
2019-01-10T00:07:17.544Z,9.97
2019-01-10T00:09:45.133Z,8.03
2019-01-10T00:12:12.779Z,6.33
2019-01-10T00:14:40.248Z,12.83
2019-01-10T00:17:07.623Z,6.93
2019-01-10T00:19:35.185Z,8.73
2019-01-10T00:22:02.666Z,6.97
2019-01-10T00:24:30.060Z,5.97
2019-01-10T00:26:57.595Z,11.20
2019-01-10T00:29:24.895Z,8.00
2019-01-10T00:31:52.325Z,8.87
2019-01-10T00:34:19.807Z,6.97
2019-01-10T00:36:47.388Z,5.80
2019-01-10T00:39:14.909Z,5.50
2019-01-10T00:41:42.348Z,5.37
2019-01-10T00:44:09.798Z,6.37
2019-01-10T00:46:37.205Z,8.97
2019-01-10T00:49:04.640Z,11.87
2019-01-10T00:51:32.011Z,8.33
2019-01-10T00:53:59.622Z,5.70
2019-01-10T00:56:27.209Z,8.77
2019-01-10T00:58:56.264Z,10.13
2019-01-10T01:01:23.777Z,5.33
2019-01-10T01:03:51.361Z,6.83
2019-01-10T01:06:19.004Z,6.47
2019-01-10T01:08:46.975Z,5.03
2019-01-10T01:11:14.605Z,6.60
2019-01-10T01:13:54.671Z,4.83
2019-01-10T01:16:22.086Z,6.20
2019-01-10T01:18:49.632Z,4.03
2019-01-10T01:21:17.234Z,7.13
2019-01-10T01:23:44.869Z,9.30
2019-01-10T01:26:12.831Z,7.07
2019-01-10T01:28:40.318Z,6.37
2019-01-10T01:31:07.727Z,9.70
2019-01-10T01:33:35.145Z,6.00
2019-01-10T01:36:02.897Z,8.20
2019-01-10T01:38:30.450Z,8.17
2019-01-10T01:40:59.460Z,4.30
2019-01-10T01:43:27.334Z,7.87
2019-01-10T01:45:54.800Z,6.97
2019-01-10T01:48:22.320Z,5.80
2019-01-10T01:50:49.840Z,5.47
2019-01-10T01:53:17.135Z,9.57
2019-01-10T01:55:44.579Z,6.80
2019-01-10T01:58:12.120Z,7.17
2019-01-10T02:00:39.507Z,8.00
2019-01-10T02:03:07.053Z,6.40
2019-01-10T02:05:34.422Z,5.23
2019-01-10T02:08:01.837Z,3.80
2019-01-10T02:10:29.513Z,6.70
2019-01-10T02:12:56.938Z,4.27
2019-01-10T02:15:25.900Z,5.20
2019-01-10T02:17:53.514Z,7.27
2019-01-10T02:20:21.030Z,5.90
2019-01-10T02:22:48.631Z,5.40
2019-01-10T02:25:16.245Z,4.40
2019-01-10T02:27:43.744Z,4.70
2019-01-10T02:30:14.772Z,5.50
2019-01-10T02:32:42.416Z,6.40
2019-01-10T02:35:11.031Z,4.67
2019-01-10T02:37:38.371Z,6.67
2019-01-10T02:40:06.609Z,8.47
2019-01-10T02:42:34.146Z,4.57
2019-01-10T02:45:01.439Z,5.80
2019-01-10T02:47:28.862Z,10.57
2019-01-10T02:49:56.258Z,5.87
2019-01-10T02:52:23.630Z,5.43
2019-01-10T02:54:51.059Z,7.83
2019-01-10T02:57:18.664Z,8.33
2019-01-10T02:59:46.131Z,4.47
2019-01-10T03:02:14.059Z,6.80
2019-01-10T03:04:41.529Z,9.20
2019-01-10T03:07:09.166Z,4.60
2019-01-10T03:09:36.603Z,7.83
2019-01-10T03:12:17.154Z,6.37
2019-01-10T03:14:44.672Z,3.07
2019-01-10T03:17:12.104Z,5.70
2019-01-10T03:19:39.687Z,4.70
2019-01-10T03:22:07.133Z,5.70
2019-01-10T03:24:34.655Z,9.00
2019-01-10T03:27:03.059Z,7.73
2019-01-10T03:29:30.491Z,5.20
2019-01-10T03:31:58.576Z,5.73
2019-01-10T03:34:25.961Z,4.53
2019-01-10T03:36:53.330Z,6.97
2019-01-10T03:39:20.808Z,7.30
2019-01-10T03:41:48.270Z,6.17
2019-01-10T03:44:15.868Z,9.13
2019-01-10T03:46:43.250Z,5.63
2019-01-10T03:49:10.710Z,5.23
2019-01-10T03:51:38.134Z,8.80
2019-01-10T03:54:05.566Z,3.90
2019-01-10T03:56:32.870Z,4.87
2019-01-10T03:59:00.286Z,7.97
2019-01-10T04:01:27.579Z,6.23
2019-01-10T04:03:54.915Z,8.17
2019-01-10T04:06:22.628Z,7.43
2019-01-10T04:08:50.008Z,13.60
2019-01-10T04:11:17.600Z,5.13
2019-01-10T04:13:45.398Z,4.53
2019-01-10T04:16:13.824Z,7.53
2019-01-10T04:18:41.309Z,6.30
2019-01-10T04:21:16.862Z,5.67
2019-01-10T04:23:38.176Z,6.33
2019-01-10T04:26:05.487Z,6.13
2019-01-10T04:28:32.909Z,9.93
2019-01-10T04:31:00.650Z,8.90
2019-01-10T04:33:28.098Z,9.40
2019-01-10T04:35:55.639Z,7.33
2019-01-10T04:38:23.042Z,10.43
2019-01-10T04:40:50.556Z,6.97
2019-01-10T04:43:18.100Z,5.10
2019-01-10T04:45:45.619Z,6.03
2019-01-10T04:48:13.202Z,7.33
2019-01-10T04:50:40.816Z,6.13
2019-01-10T04:53:08.358Z,7.60
2019-01-10T04:55:35.769Z,6.17
2019-01-10T04:58:03.299Z,6.33
2019-01-10T05:00:30.782Z,8.80
2019-01-10T05:02:58.393Z,5.30
2019-01-10T05:05:25.850Z,7.83
2019-01-10T05:07:53.237Z,4.27
2019-01-10T05:10:20.698Z,6.27
2019-01-10T05:12:48.087Z,8.93
2019-01-10T05:15:15.531Z,8.03
2019-01-10T05:17:42.975Z,9.20
2019-01-10T05:20:13.647Z,5.80
2019-01-10T05:22:41.165Z,7.30
2019-01-10T05:25:08.978Z,13.67
2019-01-10T05:27:36.511Z,6.13
2019-01-10T05:30:06.623Z,5.40
2019-01-10T05:32:34.148Z,10.63
2019-01-10T05:35:01.700Z,8.83
2019-01-10T05:37:29.267Z,10.67
2019-01-10T05:39:56.731Z,5.77
2019-01-10T05:42:24.216Z,6.70
2019-01-10T05:44:51.919Z,9.17
2019-01-10T05:47:19.342Z,7.07
2019-01-10T05:49:46.773Z,8.87
2019-01-10T05:52:14.377Z,9.43
2019-01-10T05:54:41.954Z,8.17
2019-01-10T05:57:09.527Z,9.30
2019-01-10T05:59:37.046Z,7.73
2019-01-10T06:02:04.488Z,9.93
2019-01-10T06:04:32.037Z,7.50
2019-01-10T06:06:59.477Z,8.57
2019-01-10T06:09:26.914Z,8.50
2019-01-10T06:11:54.550Z,9.67
2019-01-10T06:14:21.990Z,11.47
2019-01-10T06:16:49.418Z,8.93
2019-01-10T06:19:16.991Z,6.10
2019-01-10T06:21:44.493Z,10.07
2019-01-10T06:24:11.904Z,9.90
2019-01-10T06:26:39.290Z,13.07
2019-01-10T06:29:06.839Z,9.50
2019-01-10T06:31:34.362Z,8.70
2019-01-10T06:34:01.834Z,11.90
2019-01-10T06:36:29.331Z,12.83
2019-01-10T06:38:56.952Z,9.00
2019-01-10T06:41:24.695Z,14.27
2019-01-10T06:43:52.219Z,11.00
2019-01-10T06:46:19.742Z,13.90
2019-01-10T06:48:47.194Z,10.93
2019-01-10T06:51:14.656Z,10.67
2019-01-10T06:53:42.099Z,11.20
2019-01-10T06:56:09.690Z,12.80
2019-01-10T06:58:37.270Z,15.80
2019-01-10T07:01:04.873Z,12.53
2019-01-10T07:03:32.318Z,9.97
2019-01-10T07:06:00.424Z,9.30
2019-01-10T07:08:28.011Z,13.30
2019-01-10T07:10:59.184Z,11.37
2019-01-10T07:13:46.240Z,14.30
2019-01-10T07:16:13.676Z,9.63
2019-01-10T07:18:41.508Z,11.87
2019-01-10T07:21:09.062Z,11.37
2019-01-10T07:23:43.633Z,10.20
2019-01-10T07:26:11.274Z,10.17
2019-01-10T07:28:38.578Z,14.63
2019-01-10T07:31:26.500Z,10.23
2019-01-10T07:34:02.234Z,11.23
2019-01-10T07:36:29.732Z,11.30
2019-01-10T07:38:58.195Z,10.13
2019-01-10T07:41:25.989Z,7.53
2019-01-10T07:43:54.466Z,9.97
2019-01-10T07:46:21.899Z,13.27
2019-01-10T07:48:49.525Z,14.00
2019-01-10T07:51:16.967Z,16.43
2019-01-10T07:53:44.439Z,11.97
2019-01-10T07:56:11.775Z,16.23
2019-01-10T07:58:39.414Z,12.10
2019-01-10T08:01:06.918Z,16.70
2019-01-10T08:03:34.792Z,13.40
2019-01-10T08:06:02.220Z,12.43
2019-01-10T08:08:29.706Z,11.73
2019-01-10T08:10:57.090Z,11.70
2019-01-10T08:13:24.396Z,11.40
2019-01-10T08:15:51.790Z,17.40
2019-01-10T08:18:19.358Z,11.40
2019-01-10T08:20:46.851Z,9.70
2019-01-10T08:23:14.166Z,10.13
2019-01-10T08:25:41.652Z,10.23
2019-01-10T08:28:09.288Z,12.90
2019-01-10T08:30:36.854Z,12.80
2019-01-10T08:33:23.878Z,9.93
2019-01-10T08:35:51.366Z,10.97
2019-01-10T08:38:18.802Z,10.10
2019-01-10T08:40:46.205Z,11.70
2019-01-10T08:43:13.613Z,12.97
2019-01-10T08:45:41.142Z,8.20
2019-01-10T08:48:08.513Z,14.03
2019-01-10T08:50:40.723Z,10.57
2019-01-10T08:53:08.347Z,13.63
2019-01-10T08:55:35.811Z,9.43
2019-01-10T08:58:03.630Z,10.23
2019-01-10T09:00:31.022Z,11.53
2019-01-10T09:02:59.541Z,11.00
2019-01-10T09:05:26.976Z,11.10
2019-01-10T09:07:54.239Z,9.70
2019-01-10T09:10:24.151Z,9.73
2019-01-10T09:12:51.543Z,10.40
2019-01-10T09:15:25.260Z,6.90
2019-01-10T09:17:48.295Z,12.80
2019-01-10T09:20:15.756Z,10.10
2019-01-10T09:22:43.032Z,14.60
2019-01-10T09:25:10.486Z,9.70
2019-01-10T09:27:38.093Z,11.93
2019-01-10T09:30:09.337Z,7.57
2019-01-10T09:32:36.818Z,8.70
2019-01-10T09:35:05.458Z,8.90
2019-01-10T09:37:33.065Z,8.83
2019-01-10T09:40:00.850Z,12.73
2019-01-10T09:42:28.322Z,11.77
2019-01-10T09:44:55.706Z,11.73
2019-01-10T09:47:23.182Z,10.43
2019-01-10T09:49:50.798Z,13.17
2019-01-10T09:52:18.109Z,9.27
2019-01-10T09:54:45.427Z,8.67
2019-01-10T09:57:12.742Z,7.77
2019-01-10T09:59:40.133Z,9.67
2019-01-10T10:02:07.538Z,9.90
2019-01-10T10:04:34.830Z,13.37
2019-01-10T10:07:02.269Z,9.33
2019-01-10T10:09:30.005Z,7.53
2019-01-10T10:11:57.466Z,11.77
2019-01-10T10:14:25.108Z,10.70
2019-01-10T10:16:52.687Z,15.43
2019-01-10T10:19:24.083Z,9.07
2019-01-10T10:21:51.455Z,10.60
2019-01-10T10:24:18.799Z,10.53
2019-01-10T10:26:46.347Z,9.03
2019-01-10T10:29:13.765Z,8.53
2019-01-10T10:31:41.195Z,12.53
2019-01-10T10:34:09.743Z,11.13
2019-01-10T10:36:37.109Z,13.90
2019-01-10T10:39:07.306Z,9.50
2019-01-10T10:41:34.763Z,9.53
2019-01-10T10:44:02.291Z,9.53
2019-01-10T10:46:29.791Z,9.23
2019-01-10T10:48:57.296Z,13.07
2019-01-10T10:51:24.851Z,10.90
2019-01-10T10:53:52.278Z,13.53
2019-01-10T10:56:19.686Z,14.30
2019-01-10T10:58:47.071Z,10.13
2019-01-10T11:01:14.615Z,14.53
2019-01-10T11:03:42.022Z,12.57
2019-01-10T11:06:09.417Z,8.00
2019-01-10T11:08:36.898Z,9.83
2019-01-10T11:11:04.303Z,12.17
2019-01-10T11:13:33.041Z,12.83
2019-01-10T11:16:10.247Z,9.63
2019-01-10T11:18:31.558Z,8.17
2019-01-10T11:20:59.055Z,10.63
2019-01-10T11:23:26.516Z,7.67
2019-01-10T11:25:54.072Z,11.23
2019-01-10T11:28:21.553Z,10.37
2019-01-10T11:30:49.062Z,9.73
2019-01-10T11:33:16.611Z,10.13
2019-01-10T11:35:44.411Z,11.33
2019-01-10T11:38:12.024Z,10.60
2019-01-10T11:40:39.654Z,13.03
2019-01-10T11:43:07.274Z,9.40
2019-01-10T11:45:34.929Z,16.23
2019-01-10T11:48:02.390Z,10.33
2019-01-10T11:50:29.774Z,13.00
2019-01-10T11:52:57.328Z,13.03
2019-01-10T11:55:24.881Z,10.80
2019-01-10T11:57:53.637Z,14.80
2019-01-10T12:00:29.008Z,9.80
2019-01-10T12:02:56.991Z,12.13
2019-01-10T12:05:24.398Z,13.73
2019-01-10T12:07:51.963Z,10.13
2019-01-10T12:10:19.449Z,8.27
2019-01-10T12:12:47.204Z,9.20
2019-01-10T12:15:14.999Z,8.80
2019-01-10T12:17:42.631Z,12.80
2019-01-10T12:20:11.227Z,8.53
2019-01-10T12:22:38.543Z,11.93
2019-01-10T12:25:08.599Z,12.20
2019-01-10T12:27:35.974Z,10.47
2019-01-10T12:30:04.481Z,8.40
2019-01-10T12:32:31.983Z,8.40
2019-01-10T12:34:59.821Z,10.57
2019-01-10T12:37:27.257Z,8.83
2019-01-10T12:39:54.612Z,7.27
2019-01-10T12:42:22.017Z,7.80
2019-01-10T12:44:49.314Z,11.13
2019-01-10T12:47:16.728Z,10.50
2019-01-10T12:49:45.250Z,7.37
2019-01-10T12:52:12.895Z,10.07
2019-01-10T12:54:40.841Z,14.23
2019-01-10T12:57:08.323Z,10.67
2019-01-10T12:59:35.799Z,9.63
2019-01-10T13:02:03.302Z,6.60
2019-01-10T13:04:30.743Z,9.20
2019-01-10T13:06:58.283Z,9.37
2019-01-10T13:09:25.802Z,8.97
2019-01-10T13:11:53.162Z,9.97
2019-01-10T13:14:20.894Z,10.73
2019-01-10T13:16:48.298Z,8.77
2019-01-10T13:19:15.599Z,9.73
2019-01-10T13:21:43.093Z,10.63
2019-01-10T13:24:10.603Z,12.63
2019-01-10T13:26:38.203Z,10.47
2019-01-10T13:29:05.615Z,8.60
2019-01-10T13:31:32.948Z,13.57
2019-01-10T13:34:00.236Z,11.70
2019-01-10T13:36:39.670Z,8.43
2019-01-10T13:39:08.166Z,9.50
2019-01-10T13:41:35.636Z,10.27
2019-01-10T13:44:03.306Z,10.17
2019-01-10T13:46:31.089Z,12.77
2019-01-10T13:48:58.771Z,9.70
2019-01-10T13:51:26.095Z,7.30
2019-01-10T13:53:53.918Z,11.67
2019-01-10T13:56:21.424Z,8.83
2019-01-10T13:58:49.104Z,10.23
2019-01-10T14:01:16.509Z,8.77
2019-01-10T14:03:43.772Z,9.00
2019-01-10T14:06:11.332Z,17.30
2019-01-10T14:08:38.940Z,20.97
2019-01-10T14:11:06.430Z,9.23
2019-01-10T14:13:33.751Z,10.67
2019-01-10T14:16:03.114Z,11.40
2019-01-10T14:18:30.564Z,9.90
2019-01-10T14:20:57.976Z,13.97
2019-01-10T14:23:25.258Z,11.80
2019-01-10T14:25:52.767Z,14.10
2019-01-10T14:28:20.189Z,13.53
2019-01-10T14:30:47.843Z,25.77
2019-01-10T14:33:15.462Z,14.10
2019-01-10T14:35:42.871Z,7.70
2019-01-10T14:38:11.153Z,13.13
2019-01-10T14:40:39.876Z,9.70
2019-01-10T14:43:07.305Z,9.57
2019-01-10T14:45:36.430Z,12.13
2019-01-10T14:48:03.903Z,11.17
2019-01-10T14:50:31.344Z,9.70
2019-01-10T14:52:58.739Z,13.90
2019-01-10T14:55:26.139Z,13.43
2019-01-10T14:57:53.634Z,12.30
2019-01-10T15:00:22.262Z,13.90
2019-01-10T15:02:49.854Z,10.43
2019-01-10T15:05:17.419Z,10.80
2019-01-10T15:07:44.803Z,10.77
2019-01-10T15:10:12.770Z,7.73
2019-01-10T15:12:42.006Z,12.33
2019-01-10T15:15:12.199Z,11.63
2019-01-10T15:17:39.687Z,8.40
2019-01-10T15:20:10.653Z,10.97
2019-01-10T15:22:38.044Z,6.90
2019-01-10T15:25:05.470Z,9.63
2019-01-10T15:27:32.766Z,11.27
2019-01-10T15:30:00.057Z,8.03
2019-01-10T15:32:27.604Z,9.77
2019-01-10T15:34:55.077Z,15.20
2019-01-10T15:37:22.620Z,7.07
2019-01-10T15:39:50.009Z,8.80
2019-01-10T15:42:17.573Z,10.53
2019-01-10T15:44:45.014Z,15.53
2019-01-10T15:47:12.344Z,7.60
2019-01-10T15:49:39.842Z,9.93
2019-01-10T15:52:07.333Z,9.37
2019-01-10T15:54:34.975Z,11.13
2019-01-10T15:57:02.679Z,7.63
2019-01-10T15:59:30.255Z,15.00
2019-01-10T16:01:57.917Z,9.23
2019-01-10T16:04:25.495Z,7.00
2019-01-10T16:06:53.063Z,9.90
2019-01-10T16:09:20.557Z,5.93
2019-01-10T16:11:48.022Z,8.30
2019-01-10T16:14:15.546Z,6.50
2019-01-10T16:16:42.947Z,6.03
2019-01-10T16:19:10.404Z,7.40
2019-01-10T16:21:37.842Z,8.80
2019-01-10T16:24:05.312Z,8.43
2019-01-10T16:26:32.729Z,6.10
2019-01-10T16:29:00.029Z,7.77
2019-01-10T16:31:27.533Z,5.60
2019-01-10T16:33:55.102Z,7.90
2019-01-10T16:36:22.685Z,7.60
2019-01-10T16:38:50.469Z,9.60
2019-01-10T16:41:18.147Z,6.57
2019-01-10T16:43:46.095Z,6.53
2019-01-10T16:46:13.753Z,6.33
2019-01-10T16:48:41.491Z,7.10
2019-01-10T16:51:21.710Z,10.50
2019-01-10T16:53:49.644Z,8.37
2019-01-10T16:56:18.183Z,7.63
2019-01-10T16:58:46.526Z,7.63
2019-01-10T17:01:14.401Z,7.40
2019-01-10T17:03:43.353Z,4.53
2019-01-10T17:06:11.149Z,6.60
2019-01-10T17:08:38.925Z,5.90
2019-01-10T17:11:06.495Z,7.27
2019-01-10T17:13:34.206Z,9.00
2019-01-10T17:16:01.727Z,7.10
2019-01-10T17:18:29.063Z,7.60
2019-01-10T17:20:56.610Z,7.17
2019-01-10T17:23:45.562Z,6.33
2019-01-10T17:26:16.401Z,10.70
2019-01-10T17:28:43.926Z,5.93
2019-01-10T17:31:11.547Z,7.30
2019-01-10T17:33:39.155Z,8.20
2019-01-10T17:36:08.110Z,5.67
2019-01-10T17:38:36.570Z,7.30
2019-01-10T17:41:04.346Z,7.93
2019-01-10T17:43:32.616Z,6.30
2019-01-10T17:46:00.363Z,8.47
2019-01-10T17:48:28.103Z,9.03
2019-01-10T17:50:55.814Z,9.00
2019-01-10T17:53:23.422Z,7.80
2019-01-10T17:55:50.830Z,10.50
2019-01-10T17:58:18.570Z,9.10
2019-01-10T18:00:45.858Z,9.83
2019-01-10T18:03:13.474Z,12.23
2019-01-10T18:05:43.218Z,9.13
2019-01-10T18:08:13.104Z,7.50
2019-01-10T18:10:42.367Z,8.07
2019-01-10T18:13:10.231Z,9.10
2019-01-10T18:15:37.786Z,10.53
2019-01-10T18:18:05.734Z,8.47
2019-01-10T18:20:36.322Z,10.63
2019-01-10T18:23:04.370Z,9.40
2019-01-10T18:25:32.219Z,8.90
2019-01-10T18:27:59.727Z,8.20
2019-01-10T18:30:27.744Z,9.43
2019-01-10T18:32:56.318Z,10.70
2019-01-10T18:35:26.370Z,11.37
2019-01-10T18:37:53.196Z,12.40
2019-01-10T18:40:21.273Z,10.40
2019-01-10T18:42:48.859Z,8.10
2019-01-10T18:45:20.386Z,8.30
2019-01-10T18:47:48.015Z,9.63
2019-01-10T18:50:18.044Z,9.03
2019-01-10T18:52:45.523Z,6.33
2019-01-10T18:55:13.250Z,7.20
2019-01-10T18:57:40.747Z,6.87
2019-01-10T19:00:16.684Z,6.93
2019-01-10T19:02:44.658Z,6.80
2019-01-10T19:05:12.718Z,10.57
2019-01-10T19:07:41.297Z,8.10
2019-01-10T19:10:09.500Z,7.80
2019-01-10T19:12:37.222Z,10.30
2019-01-10T19:15:05.931Z,9.50
2019-01-10T19:17:34.555Z,10.27
2019-01-10T19:20:02.386Z,8.03
2019-01-10T19:22:29.939Z,7.87
2019-01-10T19:24:57.433Z,8.40
2019-01-10T19:27:24.754Z,10.07
2019-01-10T19:29:52.279Z,8.13
2019-01-10T19:32:19.767Z,8.37
2019-01-10T19:34:47.499Z,9.17
2019-01-10T19:37:15.106Z,8.70
2019-01-10T19:39:42.768Z,9.37
2019-01-10T19:42:12.709Z,10.30
2019-01-10T19:44:39.667Z,11.87
2019-01-10T19:47:07.298Z,10.60
2019-01-10T19:49:34.891Z,13.60
2019-01-10T19:52:02.668Z,11.17
2019-01-10T19:54:30.240Z,13.53
2019-01-10T19:56:57.741Z,12.57
2019-01-10T19:59:25.260Z,16.47
2019-01-10T20:01:52.916Z,14.23
2019-01-10T20:04:21.592Z,14.90
2019-01-10T20:06:48.995Z,15.30
2019-01-10T20:09:16.583Z,14.93
2019-01-10T20:11:44.098Z,13.97
2019-01-10T20:14:11.823Z,17.10
2019-01-10T20:16:39.170Z,14.50
2019-01-10T20:19:06.800Z,17.50
2019-01-10T20:21:34.191Z,16.20
2019-01-10T20:24:01.531Z,15.13
2019-01-10T20:26:29.040Z,16.13
2019-01-10T20:28:56.771Z,17.07
2019-01-10T20:31:24.249Z,13.90
2019-01-10T20:33:51.605Z,16.23
2019-01-10T20:36:19.034Z,14.47
2019-01-10T20:38:46.566Z,15.40
2019-01-10T20:41:15.660Z,14.93
2019-01-10T20:43:43.081Z,15.10
2019-01-10T20:46:10.851Z,15.40
2019-01-10T20:48:38.391Z,17.40
2019-01-10T20:51:05.938Z,18.20
2019-01-10T20:53:33.459Z,17.97
2019-01-10T20:56:00.871Z,17.03
2019-01-10T20:58:28.259Z,17.47
2019-01-10T21:00:58.151Z,19.77
2019-01-10T21:03:25.818Z,18.20
2019-01-10T21:05:53.292Z,19.70
2019-01-10T21:08:20.871Z,19.50
2019-01-10T21:10:48.454Z,20.47
2019-01-10T21:13:16.095Z,20.73
2019-01-10T21:15:43.628Z,19.83
2019-01-10T21:18:11.167Z,21.43
2019-01-10T21:20:38.548Z,21.40
2019-01-10T21:23:06.040Z,20.90
2019-01-10T21:25:33.590Z,24.20
2019-01-10T21:28:01.252Z,22.60
2019-01-10T21:30:28.938Z,25.80
2019-01-10T21:33:00.348Z,23.50
2019-01-10T21:35:28.387Z,24.03
2019-01-10T21:37:55.956Z,23.27
2019-01-10T21:40:43.390Z,23.87
2019-01-10T21:43:10.964Z,21.10
2019-01-10T21:45:38.635Z,22.07
2019-01-10T21:48:06.285Z,21.47
2019-01-10T21:50:33.791Z,22.17
2019-01-10T21:53:01.266Z,22.60
2019-01-10T21:55:28.863Z,21.00
2019-01-10T21:57:56.286Z,23.63
2019-01-10T22:00:26.067Z,20.33
2019-01-10T22:02:53.868Z,23.20
2019-01-10T22:05:21.382Z,22.13
2019-01-10T22:07:48.806Z,21.57
2019-01-10T22:10:16.381Z,21.30
2019-01-10T22:12:44.088Z,22.13
2019-01-10T22:15:12.764Z,21.83
2019-01-10T22:17:40.201Z,19.07
2019-01-10T22:20:09.689Z,21.47
2019-01-10T22:22:37.823Z,20.17
2019-01-10T22:25:05.807Z,21.57
2019-01-10T22:27:33.291Z,19.03
2019-01-10T22:30:01.464Z,19.80
2019-01-10T22:32:29.045Z,20.70
2019-01-10T22:35:02.702Z,20.83
2019-01-10T22:37:30.930Z,22.97
2019-01-10T22:39:58.320Z,21.60
2019-01-10T22:42:25.638Z,22.30
2019-01-10T22:44:53.006Z,21.03
2019-01-10T22:47:20.579Z,20.50
2019-01-10T22:49:48.230Z,21.33
2019-01-10T22:52:15.634Z,20.80
2019-01-10T22:54:42.916Z,20.60
2019-01-10T22:57:10.223Z,19.87
2019-01-10T22:59:37.677Z,21.30
2019-01-10T23:02:06.641Z,22.10
2019-01-10T23:04:45.576Z,20.80
2019-01-10T23:07:19.195Z,20.70
2019-01-10T23:09:46.624Z,21.10
2019-01-10T23:12:14.193Z,21.77
2019-01-10T23:14:41.895Z,19.57
2019-01-10T23:17:09.363Z,20.77
2019-01-10T23:19:45.102Z,20.13
2019-01-10T23:22:14.127Z,20.43
2019-01-10T23:24:41.622Z,21.63
2019-01-10T23:27:09.331Z,20.90
2019-01-10T23:29:36.878Z,21.63
2019-01-10T23:32:15.009Z,20.83
2019-01-10T23:34:49.499Z,21.83
2019-01-10T23:37:20.934Z,22.50
2019-01-10T23:39:48.342Z,24.80
2019-01-10T23:42:15.962Z,19.83
2019-01-10T23:44:43.378Z,21.37
2019-01-10T23:47:10.800Z,20.87
2019-01-10T23:49:38.325Z,24.23
2019-01-10T23:52:06.131Z,22.43
2019-01-10T23:54:33.701Z,22.27
2019-01-10T23:57:01.098Z,22.30
2019-01-10T23:59:28.423Z,21.00
